sensor_id;sensor_type;location;lat;lon;timestamp;pressure;altitude;pressure_sealevel;temperature;humidity
12360;BME280;6244;51.460;7.090;2023-04-01T00:00:50;98407.56;;;8.43;88.56
12360;BME280;6244;51.460;7.090;2023-04-01T00:05:47;98415.66;;;8.40;89.48
12360;BME280;6244;51.460;7.090;2023-04-01T00:10:44;98415.66;;;8.40;89.25
12360;BME280;6244;51.460;7.090;2023-04-01T00:15:42;98403.53;;;8.39;89.30
12360;BME280;6244;51.460;7.090;2023-04-01T00:20:43;98405.44;;;8.48;89.17
12360;BME280;6244;51.460;7.090;2023-04-01T00:25:40;98408.19;;;8.46;88.81
12360;BME280;6244;51.460;7.090;2023-04-01T00:30:37;98411.25;;;8.40;89.35
12360;BME280;6244;51.460;7.090;2023-04-01T00:35:35;98409.22;;;8.33;89.58
12360;BME280;6244;51.460;7.090;2023-04-01T00:40:34;98405.78;;;8.32;89.94
12360;BME280;6244;51.460;7.090;2023-04-01T00:45:34;98402.34;;;8.32;90.22
12360;BME280;6244;51.460;7.090;2023-04-01T00:50:32;98388.91;;;8.25;90.90
12360;BME280;6244;51.460;7.090;2023-04-01T00:55:33;98399.00;;;8.30;90.99
12360;BME280;6244;51.460;7.090;2023-04-01T01:00:32;98401.03;;;8.26;90.53
12360;BME280;6244;51.460;7.090;2023-04-01T01:05:38;98393.31;;;8.24;91.09
12360;BME280;6244;51.460;7.090;2023-04-01T01:10:42;98393.56;;;8.21;91.55
12360;BME280;6244;51.460;7.090;2023-04-01T01:15:46;98407.06;;;8.15;91.60
12360;BME280;6244;51.460;7.090;2023-04-01T01:21:06;98399.25;;;8.15;91.32
12360;BME280;6244;51.460;7.090;2023-04-01T01:31:44;98383.94;;;8.22;91.44
12360;BME280;6244;51.460;7.090;2023-04-01T01:36:49;98380.63;;;8.20;91.22
12360;BME280;6244;51.460;7.090;2023-04-01T01:41:47;98384.88;;;8.10;91.69
12360;BME280;6244;51.460;7.090;2023-04-01T01:46:45;98382.72;;;8.15;91.72
12360;BME280;6244;51.460;7.090;2023-04-01T01:51:43;98365.78;;;8.09;91.81
12360;BME280;6244;51.460;7.090;2023-04-01T01:56:41;98376.09;;;8.11;91.75
12360;BME280;6244;51.460;7.090;2023-04-01T02:01:42;98370.88;;;8.11;91.37
12360;BME280;6244;51.460;7.090;2023-04-01T02:06:44;98370.63;;;8.14;91.00
12360;BME280;6244;51.460;7.090;2023-04-01T02:11:47;98374.31;;;8.11;91.20
12360;BME280;6244;51.460;7.090;2023-04-01T02:16:49;98379.78;;;8.08;90.95
12360;BME280;6244;51.460;7.090;2023-04-01T02:21:49;98371.44;;;8.03;91.40
12360;BME280;6244;51.460;7.090;2023-04-01T02:26:50;98382.59;;;8.05;91.69
12360;BME280;6244;51.460;7.090;2023-04-01T02:31:48;98389.53;;;8.06;91.77
12360;BME280;6244;51.460;7.090;2023-04-01T02:36:46;98379.28;;;8.03;91.94
12360;BME280;6244;51.460;7.090;2023-04-01T02:41:44;98377.03;;;7.99;92.15
12360;BME280;6244;51.460;7.090;2023-04-01T02:46:43;98392.59;;;8.00;92.32
12360;BME280;6244;51.460;7.090;2023-04-01T02:51:39;98390.81;;;8.01;92.30
12360;BME280;6244;51.460;7.090;2023-04-01T02:56:36;98390.22;;;7.97;93.18
12360;BME280;6244;51.460;7.090;2023-04-01T03:01:33;98404.69;;;8.01;92.88
12360;BME280;6244;51.460;7.090;2023-04-01T03:06:30;98406.59;;;7.99;93.04
12360;BME280;6244;51.460;7.090;2023-04-01T03:11:27;98409.91;;;8.01;92.79
12360;BME280;6244;51.460;7.090;2023-04-01T03:16:24;98403.41;;;7.95;93.27
12360;BME280;6244;51.460;7.090;2023-04-01T03:21:22;98398.16;;;7.95;93.15
12360;BME280;6244;51.460;7.090;2023-04-01T03:26:20;98405.19;;;7.95;93.20
12360;BME280;6244;51.460;7.090;2023-04-01T03:31:17;98410.50;;;7.93;93.37
12360;BME280;6244;51.460;7.090;2023-04-01T03:36:13;98412.19;;;7.94;93.63
12360;BME280;6244;51.460;7.090;2023-04-01T03:41:12;98418.44;;;7.92;94.07
12360;BME280;6244;51.460;7.090;2023-04-01T03:46:10;98422.72;;;7.93;94.03
12360;BME280;6244;51.460;7.090;2023-04-01T03:51:07;98420.84;;;7.95;93.95
12360;BME280;6244;51.460;7.090;2023-04-01T03:56:04;98416.34;;;7.97;93.98
12360;BME280;6244;51.460;7.090;2023-04-01T04:01:01;98419.78;;;7.98;93.61
12360;BME280;6244;51.460;7.090;2023-04-01T04:05:58;98422.50;;;7.96;93.73
12360;BME280;6244;51.460;7.090;2023-04-01T04:10:55;98420.72;;;7.97;93.66
12360;BME280;6244;51.460;7.090;2023-04-01T04:15:52;98422.50;;;7.96;93.85
12360;BME280;6244;51.460;7.090;2023-04-01T04:20:49;98429.28;;;7.99;93.95
12360;BME280;6244;51.460;7.090;2023-04-01T04:25:55;98427.50;;;7.99;94.06
12360;BME280;6244;51.460;7.090;2023-04-01T04:30:52;98427.59;;;7.98;93.74
12360;BME280;6244;51.460;7.090;2023-04-01T04:35:48;98435.19;;;8.01;93.89
12360;BME280;6244;51.460;7.090;2023-04-01T04:40:45;98444.69;;;8.02;93.62
12360;BME280;6244;51.460;7.090;2023-04-01T04:45:43;98445.53;;;8.02;94.22
12360;BME280;6244;51.460;7.090;2023-04-01T04:50:40;98450.88;;;8.01;94.22
12360;BME280;6244;51.460;7.090;2023-04-01T04:55:37;98450.03;;;8.00;93.89
12360;BME280;6244;51.460;7.090;2023-04-01T05:00:33;98445.66;;;8.01;94.24
12360;BME280;6244;51.460;7.090;2023-04-01T05:05:31;98453.59;;;7.99;93.74
12360;BME280;6244;51.460;7.090;2023-04-01T05:10:28;98461.31;;;8.01;93.84
12360;BME280;6244;51.460;7.090;2023-04-01T05:15:25;98459.31;;;8.04;94.02
12360;BME280;6244;51.460;7.090;2023-04-01T05:20:22;98459.66;;;8.00;93.49
12360;BME280;6244;51.460;7.090;2023-04-01T05:25:20;98463.94;;;8.01;93.93
12360;BME280;6244;51.460;7.090;2023-04-01T05:30:16;98460.00;;;7.95;94.24
12360;BME280;6244;51.460;7.090;2023-04-01T05:35:13;98465.00;;;7.98;94.15
12360;BME280;6244;51.460;7.090;2023-04-01T05:40:10;98465.94;;;7.97;94.19
12360;BME280;6244;51.460;7.090;2023-04-01T05:45:09;98485.88;;;7.98;94.31
12360;BME280;6244;51.460;7.090;2023-04-01T05:50:06;98476.16;;;8.00;94.48
12360;BME280;6244;51.460;7.090;2023-04-01T05:55:03;98470.69;;;8.03;94.54
12360;BME280;6244;51.460;7.090;2023-04-01T06:00:00;98482.09;;;8.02;94.26
12360;BME280;6244;51.460;7.090;2023-04-01T06:11:14;98494.00;;;8.06;94.20
12360;BME280;6244;51.460;7.090;2023-04-01T06:16:18;98494.81;;;8.07;94.09
12360;BME280;6244;51.460;7.090;2023-04-01T06:21:38;98505.72;;;8.01;94.26
12360;BME280;6244;51.460;7.090;2023-04-01T06:26:42;98496.22;;;8.00;94.58
12360;BME280;6244;51.460;7.090;2023-04-01T06:31:55;98506.31;;;8.04;94.51
12360;BME280;6244;51.460;7.090;2023-04-01T06:37:11;98503.59;;;8.06;94.59
12360;BME280;6244;51.460;7.090;2023-04-01T06:42:25;98509.28;;;8.00;94.71
12360;BME280;6244;51.460;7.090;2023-04-01T06:47:41;98511.53;;;8.04;94.63
12360;BME280;6244;51.460;7.090;2023-04-01T06:52:50;98514.78;;;8.08;94.90
12360;BME280;6244;51.460;7.090;2023-04-01T06:57:52;98524.28;;;8.09;94.88
12360;BME280;6244;51.460;7.090;2023-04-01T07:02:54;98515.59;;;8.08;94.70
12360;BME280;6244;51.460;7.090;2023-04-01T07:07:57;98532.94;;;8.09;94.75
12360;BME280;6244;51.460;7.090;2023-04-01T07:13:00;98525.94;;;8.10;94.52
12360;BME280;6244;51.460;7.090;2023-04-01T07:18:02;98538.59;;;8.03;94.70
12360;BME280;6244;51.460;7.090;2023-04-01T07:23:01;98541.94;;;8.05;94.63
12360;BME280;6244;51.460;7.090;2023-04-01T07:28:03;98550.63;;;8.17;94.94
12360;BME280;6244;51.460;7.090;2023-04-01T07:33:04;98558.81;;;8.12;94.64
12360;BME280;6244;51.460;7.090;2023-04-01T07:38:11;98549.56;;;8.08;94.48
12360;BME280;6244;51.460;7.090;2023-04-01T07:43:26;98553.72;;;8.11;94.52
12360;BME280;6244;51.460;7.090;2023-04-01T07:48:29;98560.47;;;8.13;94.82
12360;BME280;6244;51.460;7.090;2023-04-01T07:53:33;98558.84;;;8.23;94.60
12360;BME280;6244;51.460;7.090;2023-04-01T07:58:38;98564.34;;;8.32;94.95
12360;BME280;6244;51.460;7.090;2023-04-01T08:03:47;98573.47;;;8.26;94.47
12360;BME280;6244;51.460;7.090;2023-04-01T08:08:59;98587.72;;;8.22;94.60
12360;BME280;6244;51.460;7.090;2023-04-01T08:14:03;98590.75;;;8.16;94.72
12360;BME280;6244;51.460;7.090;2023-04-01T08:19:10;98595.16;;;8.15;95.03
12360;BME280;6244;51.460;7.090;2023-04-01T08:24:16;98602.75;;;8.18;95.06
12360;BME280;6244;51.460;7.090;2023-04-01T08:29:18;98611.47;;;8.30;94.86
12360;BME280;6244;51.460;7.090;2023-04-01T08:34:19;98606.25;;;8.30;94.69
12360;BME280;6244;51.460;7.090;2023-04-01T08:39:22;98612.88;;;8.23;95.21
12360;BME280;6244;51.460;7.090;2023-04-01T08:44:47;98636.06;;;8.28;94.84
12360;BME280;6244;51.460;7.090;2023-04-01T08:50:12;98629.06;;;8.28;95.03
12360;BME280;6244;51.460;7.090;2023-04-01T08:55:29;98643.56;;;8.32;95.19
12360;BME280;6244;51.460;7.090;2023-04-01T09:00:31;98637.84;;;8.27;94.94
12360;BME280;6244;51.460;7.090;2023-04-01T09:05:38;98643.91;;;8.28;94.91
12360;BME280;6244;51.460;7.090;2023-04-01T09:10:49;98654.22;;;8.29;95.21
12360;BME280;6244;51.460;7.090;2023-04-01T09:16:10;98652.44;;;8.30;95.00
12360;BME280;6244;51.460;7.090;2023-04-01T09:21:19;98665.81;;;8.38;95.17
12360;BME280;6244;51.460;7.090;2023-04-01T09:26:36;98662.16;;;8.40;95.14
12360;BME280;6244;51.460;7.090;2023-04-01T09:32:07;98671.69;;;8.52;95.03
12360;BME280;6244;51.460;7.090;2023-04-01T09:37:21;98680.44;;;8.40;94.92
12360;BME280;6244;51.460;7.090;2023-04-01T09:42:44;98685.13;;;8.48;94.74
12360;BME280;6244;51.460;7.090;2023-04-01T09:47:55;98692.50;;;8.54;95.07
12360;BME280;6244;51.460;7.090;2023-04-01T09:53:05;98695.63;;;8.59;94.92
12360;BME280;6244;51.460;7.090;2023-04-01T09:58:47;98705.03;;;8.73;95.11
12360;BME280;6244;51.460;7.090;2023-04-01T10:04:15;98711.94;;;8.74;94.78
12360;BME280;6244;51.460;7.090;2023-04-01T10:09:44;98710.03;;;8.76;94.78
12360;BME280;6244;51.460;7.090;2023-04-01T10:15:15;98713.25;;;8.79;94.84
12360;BME280;6244;51.460;7.090;2023-04-01T10:20:30;98722.56;;;8.83;94.52
12360;BME280;6244;51.460;7.090;2023-04-01T10:26:12;98722.56;;;8.83;94.80
12360;BME280;6244;51.460;7.090;2023-04-01T10:31:32;98724.69;;;8.90;94.70
12360;BME280;6244;51.460;7.090;2023-04-01T10:36:47;98733.38;;;8.90;94.55
12360;BME280;6244;51.460;7.090;2023-04-01T10:42:20;98729.47;;;8.96;94.83
12360;BME280;6244;51.460;7.090;2023-04-01T10:47:57;98719.22;;;8.93;94.44
12360;BME280;6244;51.460;7.090;2023-04-01T10:59:15;98742.97;;;8.78;94.91
12360;BME280;6244;51.460;7.090;2023-04-01T11:04:52;98750.59;;;8.81;94.63
12360;BME280;6244;51.460;7.090;2023-04-01T11:10:32;98759.84;;;8.74;94.56
12360;BME280;6244;51.460;7.090;2023-04-01T11:16:08;98767.13;;;8.82;95.08
12360;BME280;6244;51.460;7.090;2023-04-01T11:21:46;98765.53;;;8.79;94.88
12360;BME280;6244;51.460;7.090;2023-04-01T11:26:52;98774.84;;;8.83;95.10
12360;BME280;6244;51.460;7.090;2023-04-01T11:31:58;98770.94;;;8.89;94.75
12360;BME280;6244;51.460;7.090;2023-04-01T11:37:05;98783.69;;;8.94;94.86
12360;BME280;6244;51.460;7.090;2023-04-01T11:42:16;98790.34;;;8.98;94.84
12360;BME280;6244;51.460;7.090;2023-04-01T11:47:25;98803.09;;;9.02;94.81
12360;BME280;6244;51.460;7.090;2023-04-01T11:52:37;98803.25;;;9.12;94.65
12360;BME280;6244;51.460;7.090;2023-04-01T11:57:46;98812.03;;;9.11;94.59
12360;BME280;6244;51.460;7.090;2023-04-01T12:03:02;98808.13;;;9.17;94.72
12360;BME280;6244;51.460;7.090;2023-04-01T12:08:24;98820.66;;;9.24;94.71
12360;BME280;6244;51.460;7.090;2023-04-01T12:13:31;98828.38;;;9.26;94.52
12360;BME280;6244;51.460;7.090;2023-04-01T12:18:34;98829.69;;;9.20;94.27
12360;BME280;6244;51.460;7.090;2023-04-01T12:23:49;98849.28;;;9.15;94.02
12360;BME280;6244;51.460;7.090;2023-04-01T12:29:02;98840.34;;;9.17;93.89
12360;BME280;6244;51.460;7.090;2023-04-01T12:34:34;98862.41;;;9.26;93.98
12360;BME280;6244;51.460;7.090;2023-04-01T12:39:59;98853.13;;;9.22;94.27
12360;BME280;6244;51.460;7.090;2023-04-01T12:45:18;98850.53;;;9.33;93.93
12360;BME280;6244;51.460;7.090;2023-04-01T12:50:27;98868.50;;;9.37;94.17
12360;BME280;6244;51.460;7.090;2023-04-01T12:55:43;98878.03;;;9.38;94.21
12360;BME280;6244;51.460;7.090;2023-04-01T13:00:48;98875.19;;;9.41;94.34
12360;BME280;6244;51.460;7.090;2023-04-01T13:06:09;98891.31;;;9.24;93.98
12360;BME280;6244;51.460;7.090;2023-04-01T13:11:19;98888.75;;;9.11;93.92
12360;BME280;6244;51.460;7.090;2023-04-01T13:16:24;98899.88;;;9.02;94.01
12360;BME280;6244;51.460;7.090;2023-04-01T13:21:32;98906.72;;;8.92;94.14
12360;BME280;6244;51.460;7.090;2023-04-01T13:26:35;98909.25;;;8.94;94.54
12360;BME280;6244;51.460;7.090;2023-04-01T13:31:38;98914.56;;;8.92;94.46
12360;BME280;6244;51.460;7.090;2023-04-01T13:36:51;98921.09;;;8.87;94.39
12360;BME280;6244;51.460;7.090;2023-04-01T13:42:03;98933.00;;;8.91;94.45
12360;BME280;6244;51.460;7.090;2023-04-01T13:47:11;98929.78;;;8.87;94.82
12360;BME280;6244;51.460;7.090;2023-04-01T13:52:22;98934.66;;;8.92;94.73
12360;BME280;6244;51.460;7.090;2023-04-01T13:57:29;98936.44;;;8.91;94.65
12360;BME280;6244;51.460;7.090;2023-04-01T14:02:46;98943.47;;;8.91;94.55
12360;BME280;6244;51.460;7.090;2023-04-01T14:07:57;98944.19;;;8.93;94.81
12360;BME280;6244;51.460;7.090;2023-04-01T14:12:58;98951.31;;;8.91;94.59
12360;BME280;6244;51.460;7.090;2023-04-01T14:18:12;98961.66;;;8.92;94.64
12360;BME280;6244;51.460;7.090;2023-04-01T14:23:32;98956.22;;;8.95;94.74
12360;BME280;6244;51.460;7.090;2023-04-01T14:28:39;98981.66;;;8.93;94.44
12360;BME280;6244;51.460;7.090;2023-04-01T14:33:43;98980.59;;;8.96;94.94
12360;BME280;6244;51.460;7.090;2023-04-01T14:38:48;98983.84;;;8.99;95.00
12360;BME280;6244;51.460;7.090;2023-04-01T14:44:05;98996.50;;;9.05;95.06
12360;BME280;6244;51.460;7.090;2023-04-01T14:49:17;98987.97;;;9.15;95.08
12360;BME280;6244;51.460;7.090;2023-04-01T14:54:21;98994.66;;;9.19;94.75
12360;BME280;6244;51.460;7.090;2023-04-01T14:59:27;98998.94;;;9.20;94.67
12360;BME280;6244;51.460;7.090;2023-04-01T15:04:37;99000.22;;;9.14;94.73
12360;BME280;6244;51.460;7.090;2023-04-01T15:09:45;99004.38;;;9.17;94.95
12360;BME280;6244;51.460;7.090;2023-04-01T15:15:02;99014.00;;;9.16;94.74
12360;BME280;6244;51.460;7.090;2023-04-01T15:20:20;99026.97;;;9.18;94.67
12360;BME280;6244;51.460;7.090;2023-04-01T15:25:38;99031.19;;;9.20;94.65
12360;BME280;6244;51.460;7.090;2023-04-01T15:30:48;99034.19;;;9.27;94.66
12360;BME280;6244;51.460;7.090;2023-04-01T15:35:50;99045.31;;;9.30;94.73
12360;BME280;6244;51.460;7.090;2023-04-01T15:40:54;99042.28;;;9.24;94.57
12360;BME280;6244;51.460;7.090;2023-04-01T15:45:58;99055.81;;;9.41;94.55
12360;BME280;6244;51.460;7.090;2023-04-01T15:51:02;99065.47;;;9.28;94.17
12360;BME280;6244;51.460;7.090;2023-04-01T15:56:16;99055.97;;;9.27;94.18
12360;BME280;6244;51.460;7.090;2023-04-01T16:01:27;99063.94;;;9.26;94.12
12360;BME280;6244;51.460;7.090;2023-04-01T16:06:46;99075.34;;;9.25;94.34
12360;BME280;6244;51.460;7.090;2023-04-01T16:11:51;99086.25;;;9.19;94.28
12360;BME280;6244;51.460;7.090;2023-04-01T16:17:03;99084.97;;;9.24;94.33
12360;BME280;6244;51.460;7.090;2023-04-01T16:22:05;99093.28;;;9.18;94.21
12360;BME280;6244;51.460;7.090;2023-04-01T16:27:09;99092.53;;;9.16;94.61
12360;BME280;6244;51.460;7.090;2023-04-01T16:32:27;99095.47;;;9.11;94.41
12360;BME280;6244;51.460;7.090;2023-04-01T16:37:33;99099.75;;;9.12;94.45
12360;BME280;6244;51.460;7.090;2023-04-01T16:42:43;99110.44;;;9.09;94.71
12360;BME280;6244;51.460;7.090;2023-04-01T16:47:47;99117.47;;;9.09;94.67
12360;BME280;6244;51.460;7.090;2023-04-01T16:52:57;99123.53;;;9.09;94.79
12360;BME280;6244;51.460;7.090;2023-04-01T16:57:59;99134.84;;;9.10;94.70
12360;BME280;6244;51.460;7.090;2023-04-01T17:03:03;99133.47;;;9.04;94.72
12360;BME280;6244;51.460;7.090;2023-04-01T17:08:07;99149.16;;;9.04;94.71
12360;BME280;6244;51.460;7.090;2023-04-01T17:13:29;99157.00;;;9.04;94.73
12360;BME280;6244;51.460;7.090;2023-04-01T17:18:38;99166.75;;;9.02;94.90
12360;BME280;6244;51.460;7.090;2023-04-01T17:23:43;99178.16;;;9.01;94.98
12360;BME280;6244;51.460;7.090;2023-04-01T17:28:50;99180.78;;;9.01;94.92
12360;BME280;6244;51.460;7.090;2023-04-01T17:34:05;99183.81;;;8.95;94.97
12360;BME280;6244;51.460;7.090;2023-04-01T17:39:24;99204.84;;;8.94;94.86
12360;BME280;6244;51.460;7.090;2023-04-01T17:44:35;99199.69;;;8.92;95.14
12360;BME280;6244;51.460;7.090;2023-04-01T17:49:39;99210.81;;;8.96;95.06
12360;BME280;6244;51.460;7.090;2023-04-01T17:54:45;99220.56;;;8.94;95.14
12360;BME280;6244;51.460;7.090;2023-04-01T17:59:50;99228.28;;;8.95;95.15
12360;BME280;6244;51.460;7.090;2023-04-01T18:05:05;99237.16;;;8.93;95.09
12360;BME280;6244;51.460;7.090;2023-04-01T18:10:17;99238.22;;;8.90;95.15
12360;BME280;6244;51.460;7.090;2023-04-01T18:15:27;99236.44;;;8.91;95.35
12360;BME280;6244;51.460;7.090;2023-04-01T18:20:35;99253.38;;;8.85;95.26
12360;BME280;6244;51.460;7.090;2023-04-01T18:25:36;99262.06;;;8.86;95.41
12360;BME280;6244;51.460;7.090;2023-04-01T18:30:39;99267.31;;;8.86;95.41
12360;BME280;6244;51.460;7.090;2023-04-01T18:35:49;99271.78;;;8.83;95.38
12360;BME280;6244;51.460;7.090;2023-04-01T18:40:51;99286.09;;;8.78;95.29
12360;BME280;6244;51.460;7.090;2023-04-01T18:45:57;99292.72;;;8.83;95.51
12360;BME280;6244;51.460;7.090;2023-04-01T18:50:56;99307.47;;;8.85;95.53
12360;BME280;6244;51.460;7.090;2023-04-01T18:55:55;99310.81;;;8.87;95.58
12360;BME280;6244;51.460;7.090;2023-04-01T19:01:04;99308.56;;;8.95;95.67
12360;BME280;6244;51.460;7.090;2023-04-01T19:06:15;99318.03;;;9.23;95.90
12360;BME280;6244;51.460;7.090;2023-04-01T19:11:18;99331.44;;;9.18;95.96
12360;BME280;6244;51.460;7.090;2023-04-01T19:16:28;99343.78;;;9.29;95.74
12360;BME280;6244;51.460;7.090;2023-04-01T19:21:33;99352.28;;;9.32;95.61
12360;BME280;6244;51.460;7.090;2023-04-01T19:26:35;99361.72;;;9.35;95.50
12360;BME280;6244;51.460;7.090;2023-04-01T19:31:51;99379.28;;;9.20;95.32
12360;BME280;6244;51.460;7.090;2023-04-01T19:36:49;99380.22;;;9.19;95.61
12360;BME280;6244;51.460;7.090;2023-04-01T19:41:51;99387.59;;;9.12;95.46
12360;BME280;6244;51.460;7.090;2023-04-01T19:46:58;99395.09;;;9.04;95.19
12360;BME280;6244;51.460;7.090;2023-04-01T19:52:00;99401.13;;;8.92;94.91
12360;BME280;6244;51.460;7.090;2023-04-01T19:57:06;99418.06;;;8.87;95.19
12360;BME280;6244;51.460;7.090;2023-04-01T20:02:26;99430.94;;;8.90;95.01
12360;BME280;6244;51.460;7.090;2023-04-01T20:07:31;99438.53;;;8.94;95.14
12360;BME280;6244;51.460;7.090;2023-04-01T20:12:40;99454.06;;;8.83;94.42
12360;BME280;6244;51.460;7.090;2023-04-01T20:17:42;99468.66;;;8.73;94.30
12360;BME280;6244;51.460;7.090;2023-04-01T20:22:58;99464.44;;;8.70;94.51
12360;BME280;6244;51.460;7.090;2023-04-01T20:28:02;99478.00;;;8.63;94.22
12360;BME280;6244;51.460;7.090;2023-04-01T20:33:10;99492.47;;;8.68;93.98
12360;BME280;6244;51.460;7.090;2023-04-01T20:38:26;99502.94;;;8.68;93.98
12360;BME280;6244;51.460;7.090;2023-04-01T20:43:46;99505.38;;;8.57;93.53
12360;BME280;6244;51.460;7.090;2023-04-01T20:49:15;99511.88;;;8.50;93.71
12360;BME280;6244;51.460;7.090;2023-04-01T20:54:43;99531.22;;;8.47;93.45
12360;BME280;6244;51.460;7.090;2023-04-01T20:59:58;99540.03;;;8.31;93.70
12360;BME280;6244;51.460;7.090;2023-04-01T21:05:28;99543.41;;;8.33;93.54
12360;BME280;6244;51.460;7.090;2023-04-01T21:10:36;99558.94;;;8.36;93.28
12360;BME280;6244;51.460;7.090;2023-04-01T21:15:46;99568.78;;;8.31;93.27
12360;BME280;6244;51.460;7.090;2023-04-01T21:20:59;99586.94;;;8.18;92.87
12360;BME280;6244;51.460;7.090;2023-04-01T21:26:11;99598.22;;;8.18;92.83
12360;BME280;6244;51.460;7.090;2023-04-01T21:31:21;99613.56;;;7.94;92.59
12360;BME280;6244;51.460;7.090;2023-04-01T21:36:37;99619.22;;;7.87;92.61
12360;BME280;6244;51.460;7.090;2023-04-01T21:41:47;99635.06;;;7.84;92.93
12360;BME280;6244;51.460;7.090;2023-04-01T21:52:32;99664.63;;;7.69;92.78
12360;BME280;6244;51.460;7.090;2023-04-01T21:57:48;99674.84;;;7.57;92.51
12360;BME280;6244;51.460;7.090;2023-04-01T22:03:08;99687.44;;;7.49;92.38
12360;BME280;6244;51.460;7.090;2023-04-01T22:08:26;99694.44;;;7.49;92.84
12360;BME280;6244;51.460;7.090;2023-04-01T22:13:29;99702.94;;;7.52;92.49
12360;BME280;6244;51.460;7.090;2023-04-01T22:18:31;99713.63;;;7.48;92.41
12360;BME280;6244;51.460;7.090;2023-04-01T22:23:37;99730.50;;;7.58;92.38
12360;BME280;6244;51.460;7.090;2023-04-01T22:28:38;99746.44;;;7.36;92.34
12360;BME280;6244;51.460;7.090;2023-04-01T22:33:41;99757.06;;;7.33;92.24
12360;BME280;6244;51.460;7.090;2023-04-01T22:38:54;99767.13;;;7.23;91.63
12360;BME280;6244;51.460;7.090;2023-04-01T22:43:55;99779.69;;;7.15;92.22
12360;BME280;6244;51.460;7.090;2023-04-01T22:48:55;99790.47;;;7.09;91.97
12360;BME280;6244;51.460;7.090;2023-04-01T22:54:02;99806.78;;;7.30;92.32
12360;BME280;6244;51.460;7.090;2023-04-01T22:59:08;99813.31;;;7.21;91.76
12360;BME280;6244;51.460;7.090;2023-04-01T23:04:05;99814.53;;;7.14;91.65
12360;BME280;6244;51.460;7.090;2023-04-01T23:09:08;99835.78;;;7.06;92.01
12360;BME280;6244;51.460;7.090;2023-04-01T23:14:30;99847.13;;;7.05;91.45
12360;BME280;6244;51.460;7.090;2023-04-01T23:19:35;99852.69;;;6.99;91.14
12360;BME280;6244;51.460;7.090;2023-04-01T23:24:38;99862.63;;;6.91;91.03
12360;BME280;6244;51.460;7.090;2023-04-01T23:29:39;99879.97;;;6.92;91.51
12360;BME280;6244;51.460;7.090;2023-04-01T23:34:37;99892.81;;;6.78;91.34
12360;BME280;6244;51.460;7.090;2023-04-01T23:39:37;99900.19;;;6.70;91.58
12360;BME280;6244;51.460;7.090;2023-04-01T23:44:35;99908.47;;;6.78;91.35
12360;BME280;6244;51.460;7.090;2023-04-01T23:49:35;99915.75;;;6.71;91.38
12360;BME280;6244;51.460;7.090;2023-04-01T23:54:41;99922.72;;;6.71;91.07
12360;BME280;6244;51.460;7.090;2023-04-01T23:59:38;99938.06;;;6.77;90.95
